createdAt,value
2022-12-16T00:00:20.467Z,73.10
2022-12-16T00:03:08.976Z,71.40
2022-12-16T00:05:42.691Z,71.90
2022-12-16T00:08:12.742Z,72.00
2022-12-16T00:10:53.480Z,66.80
2022-12-16T00:13:23.474Z,60.60
2022-12-16T00:15:51.982Z,69.60
2022-12-16T00:18:20.679Z,66.90
2022-12-16T00:20:52.635Z,64.60
2022-12-16T00:23:23.567Z,63.90
2022-12-16T00:25:53.212Z,66.70
2022-12-16T00:28:23.221Z,68.30
2022-12-16T00:30:53.123Z,67.10
2022-12-16T00:33:25.821Z,62.60
2022-12-16T00:35:55.540Z,66.20
2022-12-16T00:38:26.767Z,66.90
2022-12-16T00:40:55.229Z,66.70
2022-12-16T00:43:23.518Z,65.20
2022-12-16T00:45:52.115Z,65.00
2022-12-16T00:48:23.997Z,69.10
2022-12-16T00:50:55.263Z,69.50
2022-12-16T00:53:25.037Z,74.30
2022-12-16T00:56:02.325Z,70.20
2022-12-16T00:58:30.680Z,65.40
2022-12-16T01:00:59.843Z,73.00
2022-12-16T01:03:28.666Z,67.40
2022-12-16T01:05:57.067Z,63.90
2022-12-16T01:08:26.235Z,68.10
2022-12-16T01:10:56.623Z,72.40
2022-12-16T01:13:26.166Z,65.30
2022-12-16T01:15:54.788Z,70.00
2022-12-16T01:18:23.035Z,67.30
2022-12-16T01:20:51.484Z,66.10
2022-12-16T01:23:20.149Z,64.10
2022-12-16T01:25:53.159Z,69.90
2022-12-16T01:28:22.146Z,67.00
2022-12-16T01:30:55.388Z,71.40
2022-12-16T01:33:24.367Z,70.20
2022-12-16T01:35:59.272Z,69.90
2022-12-16T01:38:27.655Z,62.00
2022-12-16T01:40:56.672Z,63.60
2022-12-16T01:43:29.115Z,66.70
2022-12-16T01:46:07.824Z,71.10
2022-12-16T01:49:01.001Z,65.20
2022-12-16T01:51:32.451Z,65.00
2022-12-16T01:54:26.437Z,67.90
2022-12-16T01:56:58.816Z,63.60
2022-12-16T01:59:29.710Z,68.60
2022-12-16T02:01:59.496Z,69.30
2022-12-16T02:04:28.344Z,67.70
2022-12-16T02:06:58.159Z,66.50
2022-12-16T02:09:26.655Z,74.60
2022-12-16T02:12:39.870Z,73.20
2022-12-16T02:15:27.995Z,74.60
2022-12-16T02:18:02.662Z,73.60
2022-12-16T02:20:57.381Z,74.80
2022-12-16T02:23:36.106Z,70.80
2022-12-16T02:26:16.674Z,80.20
2022-12-16T02:28:57.481Z,71.60
2022-12-16T02:31:53.213Z,71.90
2022-12-16T02:34:57.928Z,76.20
2022-12-16T02:37:41.244Z,79.00
2022-12-16T02:40:30.879Z,73.10
2022-12-16T02:43:18.767Z,77.60
2022-12-16T02:45:48.815Z,75.60
2022-12-16T02:48:17.172Z,72.60
2022-12-16T02:50:51.348Z,72.40
2022-12-16T02:53:20.724Z,76.40
2022-12-16T02:56:18.614Z,74.90
2022-12-16T02:59:08.461Z,77.70
2022-12-16T03:02:07.401Z,77.40
2022-12-16T03:04:49.692Z,76.20
2022-12-16T03:07:20.382Z,73.30
2022-12-16T03:09:50.932Z,79.60
2022-12-16T03:12:22.188Z,73.20
2022-12-16T03:14:53.826Z,77.00
2022-12-16T03:17:24.693Z,74.00
2022-12-16T03:20:23.640Z,86.20
2022-12-16T03:22:54.498Z,78.40
2022-12-16T03:25:23.968Z,80.40
2022-12-16T03:28:01.880Z,74.70
2022-12-16T03:30:36.536Z,76.40
2022-12-16T03:33:29.643Z,82.40
2022-12-16T03:36:06.199Z,81.00
2022-12-16T03:38:36.222Z,76.40
2022-12-16T03:41:06.661Z,79.60
2022-12-16T03:43:35.501Z,81.30
2022-12-16T03:46:07.651Z,76.80
2022-12-16T03:48:36.366Z,79.30
2022-12-16T03:51:04.853Z,82.50
2022-12-16T03:53:33.502Z,78.30
2022-12-16T03:56:02.251Z,77.60
2022-12-16T03:58:30.521Z,75.00
2022-12-16T04:01:00.238Z,75.90
2022-12-16T04:03:28.633Z,78.20
2022-12-16T04:05:57.010Z,78.90
2022-12-16T04:08:25.369Z,76.00
2022-12-16T04:11:13.319Z,80.50
2022-12-16T04:14:00.656Z,80.70
2022-12-16T04:16:49.089Z,74.00
2022-12-16T04:19:44.818Z,82.30
2022-12-16T04:22:41.407Z,76.20
2022-12-16T04:25:20.977Z,76.40
2022-12-16T04:27:49.919Z,83.40
2022-12-16T04:30:20.612Z,75.90
2022-12-16T04:33:15.826Z,80.20
2022-12-16T04:36:03.480Z,74.50
2022-12-16T04:38:51.143Z,78.30
2022-12-16T04:41:38.137Z,76.70
2022-12-16T04:44:26.143Z,75.90
2022-12-16T04:47:13.120Z,78.00
2022-12-16T04:50:00.122Z,80.10
2022-12-16T04:52:47.370Z,75.70
2022-12-16T04:55:34.842Z,85.20
2022-12-16T04:58:23.265Z,75.30
2022-12-16T05:01:10.483Z,87.80
2022-12-16T05:03:57.788Z,83.10
2022-12-16T05:06:45.237Z,83.90
2022-12-16T05:09:32.413Z,85.00
2022-12-16T05:12:19.494Z,82.20
2022-12-16T05:15:06.891Z,82.50
2022-12-16T05:17:54.059Z,84.30
2022-12-16T05:20:41.076Z,85.20
2022-12-16T05:23:28.414Z,84.30
2022-12-16T05:26:15.206Z,88.90
2022-12-16T05:29:02.269Z,78.90
2022-12-16T05:31:49.030Z,85.30
2022-12-16T05:34:35.960Z,90.30
2022-12-16T05:37:22.783Z,92.10
2022-12-16T05:40:09.807Z,90.80
2022-12-16T05:42:56.791Z,83.80
2022-12-16T05:45:43.562Z,85.00
2022-12-16T05:48:30.618Z,94.10
2022-12-16T05:51:17.750Z,82.40
2022-12-16T05:54:06.353Z,89.20
2022-12-16T05:56:54.088Z,83.70
2022-12-16T05:59:41.037Z,89.20
2022-12-16T06:02:28.487Z,86.80
2022-12-16T06:05:15.854Z,84.40
2022-12-16T06:08:10.132Z,86.30
2022-12-16T06:10:57.887Z,83.40
2022-12-16T06:13:44.816Z,86.40
2022-12-16T06:16:31.946Z,89.80
2022-12-16T06:19:18.907Z,91.70
2022-12-16T06:22:05.838Z,83.90
2022-12-16T06:24:52.680Z,87.50
2022-12-16T06:27:39.843Z,91.00
2022-12-16T06:30:28.156Z,83.60
2022-12-16T06:33:15.068Z,83.90
2022-12-16T06:36:02.503Z,85.00
2022-12-16T06:38:49.672Z,89.70
2022-12-16T06:41:36.896Z,90.10
2022-12-16T06:44:24.012Z,93.50
2022-12-16T06:47:11.327Z,86.30
2022-12-16T06:49:58.268Z,97.10
2022-12-16T06:52:45.431Z,87.40
2022-12-16T06:55:32.619Z,89.70
2022-12-16T06:58:20.122Z,96.00
2022-12-16T07:01:07.297Z,94.10
2022-12-16T07:03:54.700Z,96.00
2022-12-16T07:06:41.497Z,89.40
2022-12-16T07:09:28.641Z,92.20
2022-12-16T07:12:15.715Z,89.30
2022-12-16T07:15:02.868Z,90.20
2022-12-16T07:18:09.911Z,83.80
2022-12-16T07:20:57.691Z,92.60
2022-12-16T07:23:44.820Z,93.50
2022-12-16T07:26:32.202Z,92.80
2022-12-16T07:29:19.345Z,98.00
2022-12-16T07:32:06.578Z,91.10
2022-12-16T07:34:53.945Z,101.90
2022-12-16T07:37:42.578Z,98.80
2022-12-16T07:40:29.864Z,95.10
2022-12-16T07:43:17.069Z,100.40
2022-12-16T07:46:04.426Z,87.60
2022-12-16T07:48:51.599Z,97.00
2022-12-16T07:51:40.072Z,93.00
2022-12-16T07:54:27.309Z,105.40
2022-12-16T07:57:14.368Z,93.60
2022-12-16T08:00:01.633Z,96.20
2022-12-16T08:02:59.522Z,92.70
2022-12-16T08:05:46.698Z,90.40
2022-12-16T08:08:33.827Z,90.60
2022-12-16T08:11:20.955Z,97.80
2022-12-16T08:14:07.993Z,109.60
2022-12-16T08:16:56.056Z,100.70
2022-12-16T08:19:43.391Z,95.50
2022-12-16T08:22:30.507Z,95.90
2022-12-16T08:25:17.312Z,95.70
2022-12-16T08:28:04.403Z,103.20
2022-12-16T08:30:51.424Z,101.70
2022-12-16T08:33:39.727Z,94.60
2022-12-16T08:36:27.305Z,95.60
2022-12-16T08:39:14.412Z,98.20
2022-12-16T08:42:01.322Z,90.40
2022-12-16T08:44:48.492Z,86.60
2022-12-16T08:47:35.964Z,86.90
2022-12-16T08:50:24.591Z,84.40
2022-12-16T08:53:11.336Z,87.10
2022-12-16T08:55:58.221Z,88.70
2022-12-16T08:58:45.404Z,88.60
2022-12-16T09:01:32.838Z,92.20
2022-12-16T09:04:20.760Z,94.30
2022-12-16T09:07:08.031Z,97.60
2022-12-16T09:09:55.047Z,89.30
2022-12-16T09:12:41.828Z,96.00
2022-12-16T09:15:29.054Z,97.80
2022-12-16T09:18:16.205Z,93.30
2022-12-16T09:21:03.601Z,90.60
2022-12-16T09:23:50.985Z,90.10
2022-12-16T09:26:38.263Z,87.10
2022-12-16T09:29:25.195Z,86.90
2022-12-16T09:32:12.816Z,96.00
2022-12-16T09:34:59.842Z,94.30
2022-12-16T09:37:46.770Z,97.30
2022-12-16T09:40:36.393Z,84.10
2022-12-16T09:43:45.296Z,82.10
2022-12-16T09:46:51.316Z,86.50
2022-12-16T09:49:59.593Z,85.10
2022-12-16T09:52:48.296Z,85.40
2022-12-16T09:55:46.028Z,86.80
2022-12-16T09:58:35.216Z,83.80
2022-12-16T10:01:23.766Z,86.70
2022-12-16T10:04:10.950Z,88.90
2022-12-16T10:07:04.170Z,87.50
2022-12-16T10:09:54.297Z,86.90
2022-12-16T10:13:00.477Z,92.10
2022-12-16T10:15:55.137Z,88.00
2022-12-16T10:18:58.878Z,92.90
2022-12-16T10:21:59.185Z,97.60
2022-12-16T10:25:00.571Z,84.40
2022-12-16T10:28:03.273Z,90.50
2022-12-16T10:30:53.400Z,87.70
2022-12-16T10:33:43.128Z,89.80
2022-12-16T10:36:36.112Z,94.60
2022-12-16T10:39:51.067Z,89.40
2022-12-16T10:42:49.509Z,86.60
2022-12-16T10:46:00.238Z,85.30
2022-12-16T10:48:56.255Z,86.20
2022-12-16T10:51:47.303Z,87.40
2022-12-16T10:54:40.637Z,91.30
2022-12-16T10:57:42.819Z,95.10
2022-12-16T11:00:36.341Z,91.30
2022-12-16T11:03:41.841Z,95.20
2022-12-16T11:06:32.044Z,97.80
2022-12-16T11:09:45.687Z,95.10
2022-12-16T11:12:51.224Z,98.80
2022-12-16T11:15:44.026Z,102.00
2022-12-16T11:18:39.975Z,105.30
2022-12-16T11:21:40.475Z,101.90
2022-12-16T11:24:39.244Z,103.10
2022-12-16T11:27:41.408Z,95.00
2022-12-16T11:30:42.466Z,99.50
2022-12-16T11:33:30.023Z,94.40
2022-12-16T11:36:28.729Z,99.90
2022-12-16T11:39:16.050Z,91.60
2022-12-16T11:42:11.929Z,91.90
2022-12-16T11:45:09.845Z,93.70
2022-12-16T11:48:01.475Z,93.60
2022-12-16T11:50:52.777Z,99.90
2022-12-16T11:54:04.914Z,108.30
2022-12-16T11:56:56.403Z,116.60
2022-12-16T12:00:11.979Z,108.90
2022-12-16T12:03:03.362Z,104.60
2022-12-16T12:05:59.538Z,98.80
2022-12-16T12:09:05.571Z,109.10
2022-12-16T12:11:58.381Z,108.20
2022-12-16T12:15:15.933Z,109.40
2022-12-16T12:18:47.656Z,100.90
2022-12-16T12:21:44.714Z,104.40
2022-12-16T12:24:56.320Z,102.80
2022-12-16T12:27:56.940Z,107.40
2022-12-16T12:30:44.061Z,111.00
2022-12-16T12:33:45.376Z,112.60
2022-12-16T12:36:36.214Z,112.40
2022-12-16T12:42:16.212Z,136.10
2022-12-16T12:45:38.125Z,114.90
2022-12-16T12:48:34.863Z,118.70
2022-12-16T12:51:31.176Z,116.10
2022-12-16T12:54:43.370Z,113.60
2022-12-16T12:57:32.672Z,112.30
2022-12-16T13:00:33.461Z,113.70
2022-12-16T13:03:25.892Z,112.90
2022-12-16T13:06:13.940Z,113.00
2022-12-16T13:09:14.408Z,113.80
2022-12-16T13:12:23.828Z,106.00
2022-12-16T13:15:11.090Z,116.60
2022-12-16T13:18:22.628Z,112.10
2022-12-16T13:21:11.172Z,110.40
2022-12-16T13:24:00.358Z,113.20
2022-12-16T13:26:50.178Z,119.20
2022-12-16T13:29:39.951Z,118.00
2022-12-16T13:32:44.485Z,117.10
2022-12-16T13:35:31.556Z,118.00
2022-12-16T13:38:21.388Z,115.80
2022-12-16T13:41:08.203Z,118.70
2022-12-16T13:44:07.151Z,112.20
2022-12-16T13:47:03.383Z,113.60
2022-12-16T14:06:48.223Z,110.60
2022-12-16T14:09:46.975Z,115.60
2022-12-16T14:12:49.433Z,110.60
2022-12-16T14:15:46.868Z,111.80
2022-12-16T14:18:47.464Z,118.30
2022-12-16T14:21:41.028Z,117.20
2022-12-16T14:24:41.621Z,117.90
2022-12-16T14:27:40.617Z,118.10
2022-12-16T14:30:38.865Z,117.70
2022-12-16T14:33:47.995Z,123.30
2022-12-16T14:36:38.154Z,129.70
2022-12-16T14:39:39.705Z,125.00
2022-12-16T14:42:45.827Z,130.00
2022-12-16T14:45:41.186Z,115.70
2022-12-16T14:49:02.889Z,108.80
2022-12-16T14:52:03.993Z,107.20
2022-12-16T14:55:01.402Z,107.60
2022-12-16T14:57:51.360Z,108.70
2022-12-16T15:00:43.485Z,95.70
2022-12-16T15:03:59.121Z,94.20
2022-12-16T15:06:53.381Z,102.00
2022-12-16T15:09:46.923Z,98.20
2022-12-16T15:12:38.697Z,100.10
2022-12-16T15:15:32.453Z,106.30
2022-12-16T15:18:20.584Z,112.30
2022-12-16T15:21:16.428Z,107.90
2022-12-16T15:24:04.326Z,107.20
2022-12-16T15:26:53.796Z,96.70
2022-12-16T15:29:51.723Z,108.90
2022-12-16T15:32:44.865Z,96.90
2022-12-16T15:35:51.807Z,93.00
2022-12-16T15:38:51.431Z,93.50
2022-12-16T15:41:41.434Z,91.70
2022-12-16T15:44:40.706Z,92.90
2022-12-16T15:47:43.084Z,91.60
2022-12-16T15:50:34.863Z,87.20
2022-12-16T15:53:57.807Z,88.40
2022-12-16T15:57:05.670Z,82.90
2022-12-16T15:59:56.647Z,78.00
2022-12-16T16:02:49.672Z,70.70
2022-12-16T16:05:41.476Z,70.50
2022-12-16T16:08:30.024Z,68.60
2022-12-16T16:11:16.960Z,65.60
2022-12-16T16:14:08.310Z,69.60
2022-12-16T16:16:59.455Z,64.30
2022-12-16T16:19:46.743Z,62.40
2022-12-16T16:22:36.189Z,57.90
2022-12-16T16:25:24.102Z,60.00
2022-12-16T16:28:10.836Z,58.50
2022-12-16T16:30:57.922Z,56.00
2022-12-16T16:33:45.134Z,61.10
2022-12-16T16:36:33.981Z,59.60
2022-12-16T16:39:21.123Z,57.10
2022-12-16T16:42:08.029Z,56.80
2022-12-16T16:44:59.842Z,55.60
2022-12-16T16:47:47.034Z,53.20
2022-12-16T16:50:34.810Z,54.30
2022-12-16T16:53:21.885Z,48.80
2022-12-16T16:56:18.106Z,54.90
2022-12-16T16:59:07.265Z,54.40
2022-12-16T17:01:54.628Z,49.50
2022-12-16T17:04:41.980Z,51.80
2022-12-16T17:07:29.254Z,53.20
2022-12-16T17:10:16.555Z,51.70
2022-12-16T17:13:04.905Z,56.70
2022-12-16T17:15:55.850Z,57.10
2022-12-16T17:18:46.638Z,56.10
2022-12-16T17:21:35.173Z,50.30
2022-12-16T17:24:22.113Z,58.80
2022-12-16T17:27:09.272Z,57.00
2022-12-16T17:29:56.219Z,56.60
2022-12-16T17:32:43.431Z,57.70
2022-12-16T17:35:30.873Z,56.00
2022-12-16T17:38:18.198Z,54.30
2022-12-16T17:41:11.384Z,49.60
2022-12-16T17:44:18.816Z,51.20
2022-12-16T17:47:05.760Z,53.30
2022-12-16T17:49:52.965Z,49.90
2022-12-16T17:52:40.449Z,48.10
2022-12-16T17:55:28.889Z,53.20
2022-12-16T17:58:16.222Z,52.90
2022-12-16T18:01:03.742Z,55.30
2022-12-16T18:03:50.801Z,53.40
2022-12-16T18:06:37.764Z,50.70
2022-12-16T18:09:25.033Z,52.60
2022-12-16T18:12:12.290Z,51.90
2022-12-16T18:14:59.340Z,57.10
2022-12-16T18:17:46.227Z,59.60
2022-12-16T18:20:33.311Z,50.70
2022-12-16T18:23:20.505Z,49.80
2022-12-16T18:26:22.256Z,52.00
2022-12-16T18:29:09.406Z,52.30
2022-12-16T18:31:56.718Z,51.60
2022-12-16T18:34:43.579Z,49.00
2022-12-16T18:37:32.152Z,51.40
2022-12-16T18:40:19.045Z,52.90
2022-12-16T18:43:05.907Z,54.70
2022-12-16T18:45:53.158Z,53.40
2022-12-16T18:48:40.166Z,53.40
2022-12-16T18:51:27.680Z,51.10
2022-12-16T18:54:15.163Z,53.90
2022-12-16T18:57:02.382Z,48.60
2022-12-16T18:59:49.351Z,50.70
2022-12-16T19:02:37.100Z,51.10
2022-12-16T19:05:24.570Z,52.20
2022-12-16T19:08:14.467Z,53.90
2022-12-16T19:11:02.047Z,57.60
2022-12-16T19:13:49.296Z,48.40
2022-12-16T19:16:36.284Z,46.90
2022-12-16T19:19:23.587Z,44.60
2022-12-16T19:22:10.627Z,44.20
2022-12-16T19:24:57.760Z,49.20
2022-12-16T19:27:44.611Z,46.80
2022-12-16T19:30:31.870Z,41.30
2022-12-16T19:33:18.928Z,47.00
2022-12-16T19:36:06.784Z,47.40
2022-12-16T19:38:53.727Z,42.90
2022-12-16T19:41:43.916Z,42.50
2022-12-16T19:44:31.299Z,43.60
2022-12-16T19:47:18.661Z,38.70
2022-12-16T19:50:05.790Z,36.10
2022-12-16T19:52:52.886Z,42.00
2022-12-16T19:55:43.274Z,39.90
2022-12-16T19:58:30.527Z,39.60
2022-12-16T20:01:17.420Z,39.40
2022-12-16T20:04:04.527Z,38.10
2022-12-16T20:06:51.769Z,37.60
2022-12-16T20:09:39.469Z,37.30
2022-12-16T20:12:26.234Z,40.60
2022-12-16T20:15:13.655Z,36.50
2022-12-16T20:18:00.738Z,39.40
2022-12-16T20:20:47.917Z,42.80
2022-12-16T20:23:34.705Z,36.60
2022-12-16T20:26:22.122Z,42.80
2022-12-16T20:29:09.360Z,44.90
2022-12-16T20:31:56.770Z,42.10
2022-12-16T20:34:43.853Z,44.00
2022-12-16T20:37:30.875Z,43.30
2022-12-16T20:40:17.849Z,44.60
2022-12-16T20:43:05.104Z,42.80
2022-12-16T20:45:52.328Z,47.60
2022-12-16T20:48:43.301Z,43.90
2022-12-16T20:51:30.611Z,49.80
2022-12-16T20:54:17.648Z,51.90
2022-12-16T20:57:07.041Z,48.10
2022-12-16T20:59:59.581Z,50.10
2022-12-16T21:02:46.742Z,54.60
2022-12-16T21:05:33.844Z,50.40
2022-12-16T21:08:20.603Z,54.60
2022-12-16T21:11:08.073Z,54.70
2022-12-16T21:13:56.450Z,56.70
2022-12-16T21:16:44.400Z,52.60
2022-12-16T21:19:33.775Z,62.00
2022-12-16T21:22:21.344Z,64.90
2022-12-16T21:25:08.053Z,70.20
2022-12-16T21:27:55.494Z,66.70
2022-12-16T21:30:42.842Z,58.10
2022-12-16T21:33:39.156Z,66.30
2022-12-16T21:36:26.401Z,63.20
2022-12-16T21:39:13.788Z,62.80
2022-12-16T21:42:00.482Z,63.20
2022-12-16T21:44:47.556Z,55.70
2022-12-16T21:47:34.381Z,57.30
2022-12-16T21:50:21.741Z,53.50
2022-12-16T21:53:10.288Z,52.50
2022-12-16T21:55:57.497Z,51.90
2022-12-16T21:58:44.232Z,57.30
2022-12-16T22:01:31.934Z,57.30
2022-12-16T22:04:18.898Z,52.70
2022-12-16T22:07:06.530Z,55.70
2022-12-16T22:09:53.686Z,62.40
2022-12-16T22:12:43.469Z,65.40
2022-12-16T22:15:30.648Z,52.50
2022-12-16T22:18:28.419Z,50.70
2022-12-16T22:21:17.538Z,54.10
2022-12-16T22:24:04.621Z,51.40
2022-12-16T22:26:51.964Z,48.20
2022-12-16T22:29:41.146Z,48.20
2022-12-16T22:32:28.072Z,51.30
2022-12-16T22:35:15.306Z,49.00
2022-12-16T22:38:02.297Z,53.70
2022-12-16T22:40:49.853Z,48.80
2022-12-16T22:43:37.071Z,44.40
2022-12-16T22:46:24.640Z,49.20
2022-12-16T22:49:11.724Z,50.80
2022-12-16T22:51:58.866Z,52.90
2022-12-16T22:54:45.786Z,45.90
2022-12-16T22:57:32.999Z,54.30
2022-12-16T23:00:20.041Z,57.50
2022-12-16T23:03:07.215Z,65.60
2022-12-16T23:05:54.111Z,57.40
2022-12-16T23:08:42.057Z,60.20
2022-12-16T23:11:41.566Z,62.40
2022-12-16T23:14:28.899Z,62.70
2022-12-16T23:17:15.652Z,64.70
2022-12-16T23:20:02.668Z,60.50
2022-12-16T23:22:49.815Z,63.90
2022-12-16T23:25:37.322Z,67.00
2022-12-16T23:28:24.336Z,67.60
2022-12-16T23:31:16.641Z,66.60
2022-12-16T23:34:03.704Z,63.10
2022-12-16T23:36:51.057Z,67.60
2022-12-16T23:39:40.300Z,63.40
2022-12-16T23:42:38.413Z,67.20
2022-12-16T23:45:26.326Z,66.70
2022-12-16T23:48:22.701Z,70.00
2022-12-16T23:51:10.218Z,63.50
2022-12-16T23:53:57.178Z,66.90
2022-12-16T23:56:44.545Z,69.20
2022-12-16T23:59:31.744Z,69.20
